sensor_id;sensor_type;location;lat;lon;timestamp;P1;durP1;ratioP1;P2;durP2;ratioP2
56653;SDS011;45096;52.302;4.634;2023-07-29T00:00:20;1.75;;;1.23;;
56653;SDS011;45096;52.302;4.634;2023-07-29T00:02:46;1.42;;;1.17;;
56653;SDS011;45096;52.302;4.634;2023-07-29T00:05:13;3.08;;;1.13;;
56653;SDS011;45096;52.302;4.634;2023-07-29T00:07:38;1.40;;;1.30;;
56653;SDS011;45096;52.302;4.634;2023-07-29T00:10:04;1.10;;;1.10;;
56653;SDS011;45096;52.302;4.634;2023-07-29T00:12:30;1.95;;;1.20;;
56653;SDS011;45096;52.302;4.634;2023-07-29T00:14:56;1.00;;;0.95;;
56653;SDS011;45096;52.302;4.634;2023-07-29T00:17:21;1.83;;;1.27;;
56653;SDS011;45096;52.302;4.634;2023-07-29T00:19:47;2.05;;;1.20;;
56653;SDS011;45096;52.302;4.634;2023-07-29T00:22:13;0.95;;;0.90;;
56653;SDS011;45096;52.302;4.634;2023-07-29T00:24:39;1.50;;;1.38;;
56653;SDS011;45096;52.302;4.634;2023-07-29T00:27:05;1.98;;;1.30;;
56653;SDS011;45096;52.302;4.634;2023-07-29T00:29:30;1.17;;;1.02;;
56653;SDS011;45096;52.302;4.634;2023-07-29T00:31:56;1.05;;;1.05;;
56653;SDS011;45096;52.302;4.634;2023-07-29T00:34:21;1.90;;;1.02;;
56653;SDS011;45096;52.302;4.634;2023-07-29T00:36:46;1.92;;;1.10;;
56653;SDS011;45096;52.302;4.634;2023-07-29T00:39:13;1.27;;;1.23;;
56653;SDS011;45096;52.302;4.634;2023-07-29T00:41:39;1.55;;;1.30;;
56653;SDS011;45096;52.302;4.634;2023-07-29T00:44:04;1.90;;;1.35;;
56653;SDS011;45096;52.302;4.634;2023-07-29T00:46:30;1.52;;;1.40;;
56653;SDS011;45096;52.302;4.634;2023-07-29T00:48:58;3.13;;;1.10;;
56653;SDS011;45096;52.302;4.634;2023-07-29T00:51:23;2.72;;;1.55;;
56653;SDS011;45096;52.302;4.634;2023-07-29T00:53:49;1.55;;;1.10;;
56653;SDS011;45096;52.302;4.634;2023-07-29T00:56:15;2.58;;;1.30;;
56653;SDS011;45096;52.302;4.634;2023-07-29T00:58:41;1.40;;;1.30;;
56653;SDS011;45096;52.302;4.634;2023-07-29T01:01:07;1.40;;;1.23;;
56653;SDS011;45096;52.302;4.634;2023-07-29T01:03:33;2.55;;;1.50;;
56653;SDS011;45096;52.302;4.634;2023-07-29T01:06:01;1.95;;;1.20;;
56653;SDS011;45096;52.302;4.634;2023-07-29T01:08:34;2.45;;;1.33;;
56653;SDS011;45096;52.302;4.634;2023-07-29T01:11:06;1.98;;;1.15;;
56653;SDS011;45096;52.302;4.634;2023-07-29T01:13:40;1.45;;;1.00;;
56653;SDS011;45096;52.302;4.634;2023-07-29T01:16:09;1.55;;;1.45;;
56653;SDS011;45096;52.302;4.634;2023-07-29T01:18:38;1.65;;;1.45;;
56653;SDS011;45096;52.302;4.634;2023-07-29T01:21:04;3.08;;;1.50;;
56653;SDS011;45096;52.302;4.634;2023-07-29T01:23:34;2.63;;;1.23;;
56653;SDS011;45096;52.302;4.634;2023-07-29T01:26:00;1.63;;;1.35;;
56653;SDS011;45096;52.302;4.634;2023-07-29T01:28:25;2.30;;;1.58;;
56653;SDS011;45096;52.302;4.634;2023-07-29T01:30:52;2.65;;;1.70;;
56653;SDS011;45096;52.302;4.634;2023-07-29T01:33:24;1.38;;;1.23;;
56653;SDS011;45096;52.302;4.634;2023-07-29T01:35:52;1.65;;;1.40;;
56653;SDS011;45096;52.302;4.634;2023-07-29T01:38:23;3.63;;;1.85;;
56653;SDS011;45096;52.302;4.634;2023-07-29T01:40:51;2.40;;;1.38;;
56653;SDS011;45096;52.302;4.634;2023-07-29T01:43:18;1.98;;;1.73;;
56653;SDS011;45096;52.302;4.634;2023-07-29T01:45:43;3.42;;;1.50;;
56653;SDS011;45096;52.302;4.634;2023-07-29T01:48:09;3.30;;;1.85;;
56653;SDS011;45096;52.302;4.634;2023-07-29T01:50:34;1.83;;;1.33;;
56653;SDS011;45096;52.302;4.634;2023-07-29T01:52:59;1.67;;;1.42;;
56653;SDS011;45096;52.302;4.634;2023-07-29T01:55:25;2.63;;;1.42;;
56653;SDS011;45096;52.302;4.634;2023-07-29T01:57:52;2.10;;;1.33;;
56653;SDS011;45096;52.302;4.634;2023-07-29T02:00:17;2.22;;;1.45;;
56653;SDS011;45096;52.302;4.634;2023-07-29T02:02:43;1.70;;;1.60;;
56653;SDS011;45096;52.302;4.634;2023-07-29T02:05:08;1.98;;;1.45;;
56653;SDS011;45096;52.302;4.634;2023-07-29T02:07:34;3.55;;;1.73;;
56653;SDS011;45096;52.302;4.634;2023-07-29T02:09:59;2.95;;;1.70;;
56653;SDS011;45096;52.302;4.634;2023-07-29T02:12:25;1.98;;;1.40;;
56653;SDS011;45096;52.302;4.634;2023-07-29T02:14:51;2.03;;;1.83;;
56653;SDS011;45096;52.302;4.634;2023-07-29T02:17:17;2.70;;;1.63;;
56653;SDS011;45096;52.302;4.634;2023-07-29T02:19:42;1.30;;;1.30;;
56653;SDS011;45096;52.302;4.634;2023-07-29T02:22:08;1.67;;;1.35;;
56653;SDS011;45096;52.302;4.634;2023-07-29T02:24:35;1.45;;;1.27;;
56653;SDS011;45096;52.302;4.634;2023-07-29T02:27:00;1.52;;;1.42;;
56653;SDS011;45096;52.302;4.634;2023-07-29T02:29:25;2.03;;;1.45;;
56653;SDS011;45096;52.302;4.634;2023-07-29T02:31:52;1.40;;;1.30;;
56653;SDS011;45096;52.302;4.634;2023-07-29T02:34:18;1.80;;;1.65;;
56653;SDS011;45096;52.302;4.634;2023-07-29T02:36:43;2.22;;;1.42;;
56653;SDS011;45096;52.302;4.634;2023-07-29T02:39:08;1.42;;;1.33;;
56653;SDS011;45096;52.302;4.634;2023-07-29T02:41:34;1.98;;;1.55;;
56653;SDS011;45096;52.302;4.634;2023-07-29T02:43:59;1.33;;;1.30;;
56653;SDS011;45096;52.302;4.634;2023-07-29T02:46:25;1.77;;;1.67;;
56653;SDS011;45096;52.302;4.634;2023-07-29T02:48:51;1.42;;;1.30;;
56653;SDS011;45096;52.302;4.634;2023-07-29T02:51:17;3.75;;;1.50;;
56653;SDS011;45096;52.302;4.634;2023-07-29T02:53:42;3.00;;;1.48;;
56653;SDS011;45096;52.302;4.634;2023-07-29T02:56:07;1.63;;;1.50;;
56653;SDS011;45096;52.302;4.634;2023-07-29T02:58:33;1.77;;;1.30;;
56653;SDS011;45096;52.302;4.634;2023-07-29T03:01:00;1.75;;;1.65;;
56653;SDS011;45096;52.302;4.634;2023-07-29T03:03:25;1.58;;;1.48;;
56653;SDS011;45096;52.302;4.634;2023-07-29T03:05:58;2.72;;;1.42;;
56653;SDS011;45096;52.302;4.634;2023-07-29T03:08:24;1.30;;;1.20;;
56653;SDS011;45096;52.302;4.634;2023-07-29T03:10:49;3.53;;;1.38;;
56653;SDS011;45096;52.302;4.634;2023-07-29T03:13:14;1.50;;;1.40;;
56653;SDS011;45096;52.302;4.634;2023-07-29T03:15:40;3.83;;;1.58;;
56653;SDS011;45096;52.302;4.634;2023-07-29T03:18:05;1.45;;;1.35;;
56653;SDS011;45096;52.302;4.634;2023-07-29T03:20:31;4.15;;;1.42;;
56653;SDS011;45096;52.302;4.634;2023-07-29T03:22:57;1.80;;;1.45;;
56653;SDS011;45096;52.302;4.634;2023-07-29T03:25:23;1.17;;;1.17;;
56653;SDS011;45096;52.302;4.634;2023-07-29T03:27:48;2.03;;;1.50;;
56653;SDS011;45096;52.302;4.634;2023-07-29T03:30:14;1.80;;;1.70;;
56653;SDS011;45096;52.302;4.634;2023-07-29T03:32:43;1.27;;;1.20;;
56653;SDS011;45096;52.302;4.634;2023-07-29T03:35:09;1.50;;;1.40;;
56653;SDS011;45096;52.302;4.634;2023-07-29T03:37:34;2.13;;;1.88;;
56653;SDS011;45096;52.302;4.634;2023-07-29T03:40:01;3.35;;;2.13;;
56653;SDS011;45096;52.302;4.634;2023-07-29T03:42:26;4.03;;;1.70;;
56653;SDS011;45096;52.302;4.634;2023-07-29T03:44:52;1.73;;;1.60;;
56653;SDS011;45096;52.302;4.634;2023-07-29T03:47:17;2.20;;;1.55;;
56653;SDS011;45096;52.302;4.634;2023-07-29T03:49:42;1.70;;;1.60;;
56653;SDS011;45096;52.302;4.634;2023-07-29T03:52:08;3.38;;;2.35;;
56653;SDS011;45096;52.302;4.634;2023-07-29T03:54:33;2.22;;;2.00;;
56653;SDS011;45096;52.302;4.634;2023-07-29T03:57:00;3.33;;;2.00;;
56653;SDS011;45096;52.302;4.634;2023-07-29T03:59:25;2.35;;;2.00;;
56653;SDS011;45096;52.302;4.634;2023-07-29T04:01:51;2.80;;;1.90;;
56653;SDS011;45096;52.302;4.634;2023-07-29T04:04:16;2.42;;;1.90;;
56653;SDS011;45096;52.302;4.634;2023-07-29T04:06:42;2.00;;;1.80;;
56653;SDS011;45096;52.302;4.634;2023-07-29T04:09:07;2.55;;;2.28;;
56653;SDS011;45096;52.302;4.634;2023-07-29T04:11:32;2.55;;;1.85;;
56653;SDS011;45096;52.302;4.634;2023-07-29T04:13:59;3.70;;;2.15;;
56653;SDS011;45096;52.302;4.634;2023-07-29T04:16:25;2.22;;;2.00;;
56653;SDS011;45096;52.302;4.634;2023-07-29T04:18:50;2.10;;;1.92;;
56653;SDS011;45096;52.302;4.634;2023-07-29T04:21:16;2.03;;;1.92;;
56653;SDS011;45096;52.302;4.634;2023-07-29T04:23:41;2.35;;;1.50;;
56653;SDS011;45096;52.302;4.634;2023-07-29T04:26:06;4.45;;;1.70;;
56653;SDS011;45096;52.302;4.634;2023-07-29T04:28:32;3.15;;;2.10;;
56653;SDS011;45096;52.302;4.634;2023-07-29T04:30:59;2.28;;;1.80;;
56653;SDS011;45096;52.302;4.634;2023-07-29T04:33:24;2.80;;;1.95;;
56653;SDS011;45096;52.302;4.634;2023-07-29T04:35:49;3.70;;;2.47;;
56653;SDS011;45096;52.302;4.634;2023-07-29T04:38:15;2.90;;;1.95;;
56653;SDS011;45096;52.302;4.634;2023-07-29T04:40:40;3.97;;;1.85;;
56653;SDS011;45096;52.302;4.634;2023-07-29T04:43:06;2.03;;;1.75;;
56653;SDS011;45096;52.302;4.634;2023-07-29T04:45:31;3.83;;;2.53;;
56653;SDS011;45096;52.302;4.634;2023-07-29T04:47:58;2.10;;;1.88;;
56653;SDS011;45096;52.302;4.634;2023-07-29T04:50:23;2.13;;;1.80;;
56653;SDS011;45096;52.302;4.634;2023-07-29T04:52:49;2.33;;;2.05;;
56653;SDS011;45096;52.302;4.634;2023-07-29T04:55:14;1.98;;;1.88;;
56653;SDS011;45096;52.302;4.634;2023-07-29T04:57:40;1.80;;;1.70;;
56653;SDS011;45096;52.302;4.634;2023-07-29T05:00:06;3.22;;;2.22;;
56653;SDS011;45096;52.302;4.634;2023-07-29T05:02:32;2.15;;;1.70;;
56653;SDS011;45096;52.302;4.634;2023-07-29T05:04:58;2.15;;;1.73;;
56653;SDS011;45096;52.302;4.634;2023-07-29T05:07:24;2.72;;;2.17;;
56653;SDS011;45096;52.302;4.634;2023-07-29T05:09:49;4.55;;;2.17;;
56653;SDS011;45096;52.302;4.634;2023-07-29T05:12:15;3.20;;;1.63;;
56653;SDS011;45096;52.302;4.634;2023-07-29T05:14:40;4.40;;;2.15;;
56653;SDS011;45096;52.302;4.634;2023-07-29T05:17:05;1.88;;;1.77;;
56653;SDS011;45096;52.302;4.634;2023-07-29T05:19:31;5.78;;;1.80;;
56653;SDS011;45096;52.302;4.634;2023-07-29T05:21:57;3.05;;;1.55;;
56653;SDS011;45096;52.302;4.634;2023-07-29T05:24:23;4.53;;;2.38;;
56653;SDS011;45096;52.302;4.634;2023-07-29T05:26:48;6.00;;;2.15;;
56653;SDS011;45096;52.302;4.634;2023-07-29T05:29:14;2.90;;;2.00;;
56653;SDS011;45096;52.302;4.634;2023-07-29T05:31:39;8.18;;;1.80;;
56653;SDS011;45096;52.302;4.634;2023-07-29T05:34:05;6.35;;;2.30;;
56653;SDS011;45096;52.302;4.634;2023-07-29T05:36:30;1.95;;;1.75;;
56653;SDS011;45096;52.302;4.634;2023-07-29T05:38:57;3.53;;;1.77;;
56653;SDS011;45096;52.302;4.634;2023-07-29T05:41:22;5.07;;;2.00;;
56653;SDS011;45096;52.302;4.634;2023-07-29T05:43:48;4.47;;;1.75;;
56653;SDS011;45096;52.302;4.634;2023-07-29T05:46:13;4.65;;;2.25;;
56653;SDS011;45096;52.302;4.634;2023-07-29T05:48:38;3.60;;;1.85;;
56653;SDS011;45096;52.302;4.634;2023-07-29T05:51:04;3.72;;;2.13;;
56653;SDS011;45096;52.302;4.634;2023-07-29T05:53:29;4.32;;;1.85;;
56653;SDS011;45096;52.302;4.634;2023-07-29T05:55:56;4.60;;;1.80;;
56653;SDS011;45096;52.302;4.634;2023-07-29T05:58:22;2.25;;;1.83;;
56653;SDS011;45096;52.302;4.634;2023-07-29T06:00:47;2.35;;;2.05;;
56653;SDS011;45096;52.302;4.634;2023-07-29T06:03:12;9.25;;;2.30;;
56653;SDS011;45096;52.302;4.634;2023-07-29T06:05:38;2.83;;;1.75;;
56653;SDS011;45096;52.302;4.634;2023-07-29T06:08:04;2.22;;;1.83;;
56653;SDS011;45096;52.302;4.634;2023-07-29T06:10:29;6.38;;;1.85;;
56653;SDS011;45096;52.302;4.634;2023-07-29T06:12:56;2.22;;;1.58;;
56653;SDS011;45096;52.302;4.634;2023-07-29T06:15:21;3.08;;;1.92;;
56653;SDS011;45096;52.302;4.634;2023-07-29T06:17:47;4.07;;;1.80;;
56653;SDS011;45096;52.302;4.634;2023-07-29T06:20:12;3.05;;;1.92;;
56653;SDS011;45096;52.302;4.634;2023-07-29T06:22:38;5.38;;;1.98;;
56653;SDS011;45096;52.302;4.634;2023-07-29T06:25:03;2.47;;;1.70;;
56653;SDS011;45096;52.302;4.634;2023-07-29T06:27:29;3.10;;;1.88;;
56653;SDS011;45096;52.302;4.634;2023-07-29T06:29:56;2.85;;;1.63;;
56653;SDS011;45096;52.302;4.634;2023-07-29T06:32:21;4.47;;;1.60;;
56653;SDS011;45096;52.302;4.634;2023-07-29T06:34:47;4.05;;;1.50;;
56653;SDS011;45096;52.302;4.634;2023-07-29T06:37:12;4.25;;;1.75;;
56653;SDS011;45096;52.302;4.634;2023-07-29T06:39:37;1.70;;;1.60;;
56653;SDS011;45096;52.302;4.634;2023-07-29T06:42:03;3.95;;;2.03;;
56653;SDS011;45096;52.302;4.634;2023-07-29T06:44:28;4.32;;;1.40;;
56653;SDS011;45096;52.302;4.634;2023-07-29T06:46:55;3.05;;;1.52;;
56653;SDS011;45096;52.302;4.634;2023-07-29T06:49:22;2.55;;;1.80;;
56653;SDS011;45096;52.302;4.634;2023-07-29T06:51:48;4.32;;;2.10;;
56653;SDS011;45096;52.302;4.634;2023-07-29T06:54:13;1.73;;;1.52;;
56653;SDS011;45096;52.302;4.634;2023-07-29T06:56:38;4.38;;;1.77;;
56653;SDS011;45096;52.302;4.634;2023-07-29T06:59:04;4.47;;;1.80;;
56653;SDS011;45096;52.302;4.634;2023-07-29T07:01:29;3.70;;;1.77;;
56653;SDS011;45096;52.302;4.634;2023-07-29T07:03:56;3.00;;;1.75;;
56653;SDS011;45096;52.302;4.634;2023-07-29T07:06:21;3.70;;;1.80;;
56653;SDS011;45096;52.302;4.634;2023-07-29T07:08:47;1.83;;;1.40;;
56653;SDS011;45096;52.302;4.634;2023-07-29T07:11:12;4.00;;;1.42;;
56653;SDS011;45096;52.302;4.634;2023-07-29T07:13:38;4.07;;;1.65;;
56653;SDS011;45096;52.302;4.634;2023-07-29T07:16:03;4.18;;;1.60;;
56653;SDS011;45096;52.302;4.634;2023-07-29T07:18:29;5.75;;;2.10;;
56653;SDS011;45096;52.302;4.634;2023-07-29T07:20:56;2.63;;;1.63;;
56653;SDS011;45096;52.302;4.634;2023-07-29T07:23:21;3.72;;;1.90;;
56653;SDS011;45096;52.302;4.634;2023-07-29T07:25:46;4.78;;;1.95;;
56653;SDS011;45096;52.302;4.634;2023-07-29T07:28:12;2.70;;;1.52;;
56653;SDS011;45096;52.302;4.634;2023-07-29T07:30:39;4.10;;;1.80;;
56653;SDS011;45096;52.302;4.634;2023-07-29T07:33:05;1.90;;;1.70;;
56653;SDS011;45096;52.302;4.634;2023-07-29T07:35:30;5.70;;;2.13;;
56653;SDS011;45096;52.302;4.634;2023-07-29T07:37:57;3.28;;;1.63;;
56653;SDS011;45096;52.302;4.634;2023-07-29T07:40:22;4.40;;;1.70;;
56653;SDS011;45096;52.302;4.634;2023-07-29T07:42:48;2.38;;;1.70;;
56653;SDS011;45096;52.302;4.634;2023-07-29T07:45:13;3.35;;;1.85;;
56653;SDS011;45096;52.302;4.634;2023-07-29T07:47:39;2.83;;;1.63;;
56653;SDS011;45096;52.302;4.634;2023-07-29T07:50:04;3.45;;;1.90;;
56653;SDS011;45096;52.302;4.634;2023-07-29T07:52:30;4.80;;;1.88;;
56653;SDS011;45096;52.302;4.634;2023-07-29T07:54:57;4.05;;;2.47;;
56653;SDS011;45096;52.302;4.634;2023-07-29T07:57:22;3.50;;;1.50;;
56653;SDS011;45096;52.302;4.634;2023-07-29T07:59:48;2.05;;;1.65;;
56653;SDS011;45096;52.302;4.634;2023-07-29T08:02:13;4.50;;;1.90;;
56653;SDS011;45096;52.302;4.634;2023-07-29T08:04:39;1.40;;;1.25;;
56653;SDS011;45096;52.302;4.634;2023-07-29T08:07:05;4.32;;;1.77;;
56653;SDS011;45096;52.302;4.634;2023-07-29T08:09:30;2.75;;;1.80;;
56653;SDS011;45096;52.302;4.634;2023-07-29T08:11:57;4.15;;;2.33;;
56653;SDS011;45096;52.302;4.634;2023-07-29T08:14:22;5.57;;;2.00;;
56653;SDS011;45096;52.302;4.634;2023-07-29T08:16:48;5.65;;;1.73;;
56653;SDS011;45096;52.302;4.634;2023-07-29T08:19:13;4.90;;;2.15;;
56653;SDS011;45096;52.302;4.634;2023-07-29T08:21:39;5.25;;;2.10;;
56653;SDS011;45096;52.302;4.634;2023-07-29T08:24:04;3.42;;;2.00;;
56653;SDS011;45096;52.302;4.634;2023-07-29T08:26:30;3.30;;;1.95;;
56653;SDS011;45096;52.302;4.634;2023-07-29T08:28:56;2.10;;;1.90;;
56653;SDS011;45096;52.302;4.634;2023-07-29T08:31:22;3.67;;;2.45;;
56653;SDS011;45096;52.302;4.634;2023-07-29T08:33:47;5.32;;;2.17;;
56653;SDS011;45096;52.302;4.634;2023-07-29T08:36:13;4.18;;;2.22;;
56653;SDS011;45096;52.302;4.634;2023-07-29T08:38:38;2.58;;;2.03;;
56653;SDS011;45096;52.302;4.634;2023-07-29T08:41:06;3.28;;;2.67;;
56653;SDS011;45096;52.302;4.634;2023-07-29T08:43:36;3.85;;;2.47;;
56653;SDS011;45096;52.302;4.634;2023-07-29T08:46:05;5.13;;;2.22;;
56653;SDS011;45096;52.302;4.634;2023-07-29T08:48:32;4.78;;;2.10;;
56653;SDS011;45096;52.302;4.634;2023-07-29T08:50:58;5.88;;;2.53;;
56653;SDS011;45096;52.302;4.634;2023-07-29T08:53:25;4.60;;;2.13;;
56653;SDS011;45096;52.302;4.634;2023-07-29T08:55:50;3.47;;;2.22;;
56653;SDS011;45096;52.302;4.634;2023-07-29T08:58:16;6.28;;;2.30;;
56653;SDS011;45096;52.302;4.634;2023-07-29T09:00:42;6.95;;;3.03;;
56653;SDS011;45096;52.302;4.634;2023-07-29T09:03:09;3.65;;;2.03;;
56653;SDS011;45096;52.302;4.634;2023-07-29T09:05:34;7.03;;;2.45;;
56653;SDS011;45096;52.302;4.634;2023-07-29T09:08:00;2.58;;;1.95;;
56653;SDS011;45096;52.302;4.634;2023-07-29T09:10:27;5.75;;;2.47;;
56653;SDS011;45096;52.302;4.634;2023-07-29T09:12:52;5.15;;;2.38;;
56653;SDS011;45096;52.302;4.634;2023-07-29T09:15:26;2.33;;;2.10;;
56653;SDS011;45096;52.302;4.634;2023-07-29T09:17:52;5.32;;;2.15;;
56653;SDS011;45096;52.302;4.634;2023-07-29T09:20:22;2.42;;;2.17;;
56653;SDS011;45096;52.302;4.634;2023-07-29T09:22:49;3.58;;;2.30;;
56653;SDS011;45096;52.302;4.634;2023-07-29T09:25:14;5.25;;;2.40;;
56653;SDS011;45096;52.302;4.634;2023-07-29T09:27:40;5.13;;;2.38;;
56653;SDS011;45096;52.302;4.634;2023-07-29T09:30:07;3.65;;;2.25;;
56653;SDS011;45096;52.302;4.634;2023-07-29T09:32:40;5.30;;;2.55;;
56653;SDS011;45096;52.302;4.634;2023-07-29T09:35:09;5.90;;;2.00;;
56653;SDS011;45096;52.302;4.634;2023-07-29T09:37:36;6.03;;;2.47;;
56653;SDS011;45096;52.302;4.634;2023-07-29T09:40:03;3.20;;;2.00;;
56653;SDS011;45096;52.302;4.634;2023-07-29T09:42:29;3.88;;;2.30;;
56653;SDS011;45096;52.302;4.634;2023-07-29T09:44:54;6.95;;;2.42;;
56653;SDS011;45096;52.302;4.634;2023-07-29T09:47:20;3.40;;;2.15;;
56653;SDS011;45096;52.302;4.634;2023-07-29T09:49:46;2.97;;;2.28;;
56653;SDS011;45096;52.302;4.634;2023-07-29T09:52:11;4.97;;;2.35;;
56653;SDS011;45096;52.302;4.634;2023-07-29T09:54:38;4.32;;;2.25;;
56653;SDS011;45096;52.302;4.634;2023-07-29T09:57:04;3.30;;;2.20;;
56653;SDS011;45096;52.302;4.634;2023-07-29T09:59:33;6.20;;;2.40;;
56653;SDS011;45096;52.302;4.634;2023-07-29T10:01:59;2.58;;;2.30;;
56653;SDS011;45096;52.302;4.634;2023-07-29T10:04:25;6.32;;;2.40;;
56653;SDS011;45096;52.302;4.634;2023-07-29T10:06:51;5.55;;;2.45;;
56653;SDS011;45096;52.302;4.634;2023-07-29T10:09:17;4.30;;;2.53;;
56653;SDS011;45096;52.302;4.634;2023-07-29T10:11:44;4.43;;;1.95;;
56653;SDS011;45096;52.302;4.634;2023-07-29T10:14:10;3.58;;;1.98;;
56653;SDS011;45096;52.302;4.634;2023-07-29T10:16:36;6.80;;;2.33;;
56653;SDS011;45096;52.302;4.634;2023-07-29T10:19:01;2.15;;;1.95;;
56653;SDS011;45096;52.302;4.634;2023-07-29T10:21:27;3.78;;;1.92;;
56653;SDS011;45096;52.302;4.634;2023-07-29T10:23:54;3.33;;;2.22;;
56653;SDS011;45096;52.302;4.634;2023-07-29T10:26:23;5.63;;;2.35;;
56653;SDS011;45096;52.302;4.634;2023-07-29T10:28:50;3.25;;;1.95;;
56653;SDS011;45096;52.302;4.634;2023-07-29T10:31:17;4.43;;;2.17;;
56653;SDS011;45096;52.302;4.634;2023-07-29T10:33:42;1.92;;;1.67;;
56653;SDS011;45096;52.302;4.634;2023-07-29T10:36:09;4.15;;;2.65;;
56653;SDS011;45096;52.302;4.634;2023-07-29T10:38:34;6.55;;;2.75;;
56653;SDS011;45096;52.302;4.634;2023-07-29T10:41:00;3.78;;;2.42;;
56653;SDS011;45096;52.302;4.634;2023-07-29T10:43:26;6.25;;;2.78;;
56653;SDS011;45096;52.302;4.634;2023-07-29T10:45:53;4.68;;;2.25;;
56653;SDS011;45096;52.302;4.634;2023-07-29T10:51:28;3.78;;;2.55;;
56653;SDS011;45096;52.302;4.634;2023-07-29T10:53:54;3.70;;;2.17;;
56653;SDS011;45096;52.302;4.634;2023-07-29T10:56:24;3.83;;;1.98;;
56653;SDS011;45096;52.302;4.634;2023-07-29T10:58:51;4.03;;;1.80;;
56653;SDS011;45096;52.302;4.634;2023-07-29T11:01:23;4.93;;;2.10;;
56653;SDS011;45096;52.302;4.634;2023-07-29T11:04:00;5.20;;;2.15;;
56653;SDS011;45096;52.302;4.634;2023-07-29T11:06:26;3.25;;;2.05;;
56653;SDS011;45096;52.302;4.634;2023-07-29T11:08:52;3.70;;;1.88;;
56653;SDS011;45096;52.302;4.634;2023-07-29T11:11:17;4.72;;;2.58;;
56653;SDS011;45096;52.302;4.634;2023-07-29T11:13:43;1.95;;;1.75;;
56653;SDS011;45096;52.302;4.634;2023-07-29T11:16:09;3.80;;;2.08;;
56653;SDS011;45096;52.302;4.634;2023-07-29T11:18:36;2.15;;;1.55;;
56653;SDS011;45096;52.302;4.634;2023-07-29T11:21:02;7.05;;;2.55;;
56653;SDS011;45096;52.302;4.634;2023-07-29T11:23:29;2.28;;;1.67;;
56653;SDS011;45096;52.302;4.634;2023-07-29T11:25:55;1.75;;;1.65;;
56653;SDS011;45096;52.302;4.634;2023-07-29T11:28:21;4.03;;;1.83;;
56653;SDS011;45096;52.302;4.634;2023-07-29T11:30:46;1.65;;;1.27;;
56653;SDS011;45096;52.302;4.634;2023-07-29T11:33:11;2.03;;;1.40;;
56653;SDS011;45096;52.302;4.634;2023-07-29T11:35:39;4.03;;;1.55;;
56653;SDS011;45096;52.302;4.634;2023-07-29T11:38:04;2.08;;;1.67;;
56653;SDS011;45096;52.302;4.634;2023-07-29T11:40:30;2.40;;;1.38;;
56653;SDS011;45096;52.302;4.634;2023-07-29T11:42:55;2.00;;;1.08;;
56653;SDS011;45096;52.302;4.634;2023-07-29T11:45:22;2.05;;;1.10;;
56653;SDS011;45096;52.302;4.634;2023-07-29T11:47:47;2.22;;;1.58;;
56653;SDS011;45096;52.302;4.634;2023-07-29T11:50:13;1.33;;;1.17;;
56653;SDS011;45096;52.302;4.634;2023-07-29T11:52:41;2.45;;;1.85;;
56653;SDS011;45096;52.302;4.634;2023-07-29T11:55:07;1.90;;;1.38;;
56653;SDS011;45096;52.302;4.634;2023-07-29T11:57:33;2.15;;;1.30;;
56653;SDS011;45096;52.302;4.634;2023-07-29T12:00:01;1.35;;;1.20;;
56653;SDS011;45096;52.302;4.634;2023-07-29T12:02:26;2.38;;;1.10;;
56653;SDS011;45096;52.302;4.634;2023-07-29T12:04:52;1.42;;;1.30;;
56653;SDS011;45096;52.302;4.634;2023-07-29T12:07:18;2.00;;;1.17;;
56653;SDS011;45096;52.302;4.634;2023-07-29T12:09:45;2.30;;;1.05;;
56653;SDS011;45096;52.302;4.634;2023-07-29T12:12:11;2.10;;;1.15;;
56653;SDS011;45096;52.302;4.634;2023-07-29T12:14:37;2.17;;;1.10;;
56653;SDS011;45096;52.302;4.634;2023-07-29T12:17:03;2.33;;;1.30;;
56653;SDS011;45096;52.302;4.634;2023-07-29T12:19:33;1.67;;;1.23;;
56653;SDS011;45096;52.302;4.634;2023-07-29T12:21:59;1.83;;;0.70;;
56653;SDS011;45096;52.302;4.634;2023-07-29T12:24:24;3.03;;;1.00;;
56653;SDS011;45096;52.302;4.634;2023-07-29T12:26:51;1.20;;;0.98;;
56653;SDS011;45096;52.302;4.634;2023-07-29T12:29:17;2.28;;;0.88;;
56653;SDS011;45096;52.302;4.634;2023-07-29T12:31:43;1.10;;;0.95;;
56653;SDS011;45096;52.302;4.634;2023-07-29T12:34:09;1.33;;;1.13;;
56653;SDS011;45096;52.302;4.634;2023-07-29T12:36:41;1.80;;;0.90;;
56653;SDS011;45096;52.302;4.634;2023-07-29T12:39:15;1.05;;;0.82;;
56653;SDS011;45096;52.302;4.634;2023-07-29T12:41:41;1.70;;;1.00;;
56653;SDS011;45096;52.302;4.634;2023-07-29T12:44:07;1.58;;;1.00;;
56653;SDS011;45096;52.302;4.634;2023-07-29T12:46:33;1.42;;;0.65;;
56653;SDS011;45096;52.302;4.634;2023-07-29T12:48:58;1.85;;;0.93;;
56653;SDS011;45096;52.302;4.634;2023-07-29T12:51:24;1.75;;;0.90;;
56653;SDS011;45096;52.302;4.634;2023-07-29T12:53:49;2.03;;;0.90;;
56653;SDS011;45096;52.302;4.634;2023-07-29T12:56:15;0.65;;;0.65;;
56653;SDS011;45096;52.302;4.634;2023-07-29T12:58:40;1.05;;;1.05;;
56653;SDS011;45096;52.302;4.634;2023-07-29T13:01:07;3.05;;;1.05;;
56653;SDS011;45096;52.302;4.634;2023-07-29T13:03:32;1.15;;;1.00;;
56653;SDS011;45096;52.302;4.634;2023-07-29T13:05:58;1.58;;;0.90;;
56653;SDS011;45096;52.302;4.634;2023-07-29T13:08:23;1.50;;;1.10;;
56653;SDS011;45096;52.302;4.634;2023-07-29T13:10:48;0.95;;;0.82;;
56653;SDS011;45096;52.302;4.634;2023-07-29T13:13:14;1.80;;;1.15;;
56653;SDS011;45096;52.302;4.634;2023-07-29T13:15:39;4.30;;;1.67;;
56653;SDS011;45096;52.302;4.634;2023-07-29T13:18:06;2.70;;;1.40;;
56653;SDS011;45096;52.302;4.634;2023-07-29T13:20:31;5.38;;;1.98;;
56653;SDS011;45096;52.302;4.634;2023-07-29T13:22:57;6.65;;;1.65;;
56653;SDS011;45096;52.302;4.634;2023-07-29T13:25:22;5.47;;;1.40;;
56653;SDS011;45096;52.302;4.634;2023-07-29T13:27:48;3.70;;;1.38;;
56653;SDS011;45096;52.302;4.634;2023-07-29T13:30:13;2.33;;;1.67;;
56653;SDS011;45096;52.302;4.634;2023-07-29T13:32:38;3.45;;;1.20;;
56653;SDS011;45096;52.302;4.634;2023-07-29T13:35:05;2.45;;;1.42;;
56653;SDS011;45096;52.302;4.634;2023-07-29T13:37:31;3.88;;;1.58;;
56653;SDS011;45096;52.302;4.634;2023-07-29T13:39:57;3.75;;;1.83;;
56653;SDS011;45096;52.302;4.634;2023-07-29T13:42:22;2.25;;;1.45;;
56653;SDS011;45096;52.302;4.634;2023-07-29T13:44:48;2.50;;;1.58;;
56653;SDS011;45096;52.302;4.634;2023-07-29T13:47:13;2.15;;;1.30;;
56653;SDS011;45096;52.302;4.634;2023-07-29T13:49:38;1.90;;;1.40;;
56653;SDS011;45096;52.302;4.634;2023-07-29T13:52:05;3.10;;;1.27;;
56653;SDS011;45096;52.302;4.634;2023-07-29T13:54:31;2.88;;;1.20;;
56653;SDS011;45096;52.302;4.634;2023-07-29T13:56:56;1.67;;;1.30;;
56653;SDS011;45096;52.302;4.634;2023-07-29T13:59:22;2.72;;;1.50;;
56653;SDS011;45096;52.302;4.634;2023-07-29T14:01:47;4.20;;;1.58;;
56653;SDS011;45096;52.302;4.634;2023-07-29T14:04:13;2.85;;;1.83;;
56653;SDS011;45096;52.302;4.634;2023-07-29T14:06:38;2.78;;;2.55;;
56653;SDS011;45096;52.302;4.634;2023-07-29T14:09:05;2.95;;;2.38;;
56653;SDS011;45096;52.302;4.634;2023-07-29T14:11:30;3.80;;;1.33;;
56653;SDS011;45096;52.302;4.634;2023-07-29T14:13:56;2.92;;;1.30;;
56653;SDS011;45096;52.302;4.634;2023-07-29T14:16:21;1.80;;;1.48;;
56653;SDS011;45096;52.302;4.634;2023-07-29T14:18:46;3.03;;;1.35;;
56653;SDS011;45096;52.302;4.634;2023-07-29T14:21:12;2.83;;;1.50;;
56653;SDS011;45096;52.302;4.634;2023-07-29T14:23:37;2.17;;;1.25;;
56653;SDS011;45096;52.302;4.634;2023-07-29T14:26:04;3.38;;;1.63;;
56653;SDS011;45096;52.302;4.634;2023-07-29T14:28:29;2.15;;;1.58;;
56653;SDS011;45096;52.302;4.634;2023-07-29T14:30:55;1.88;;;1.77;;
56653;SDS011;45096;52.302;4.634;2023-07-29T14:33:21;2.33;;;2.13;;
56653;SDS011;45096;52.302;4.634;2023-07-29T14:35:46;3.95;;;1.83;;
56653;SDS011;45096;52.302;4.634;2023-07-29T14:38:12;3.03;;;2.60;;
56653;SDS011;45096;52.302;4.634;2023-07-29T14:40:37;2.03;;;1.85;;
56653;SDS011;45096;52.302;4.634;2023-07-29T14:43:04;2.28;;;2.17;;